sensor_id;sensor_type;location;lat;lon;timestamp;temperature;humidity
52787;DHT22;38661;53.152;5.846;2022-10-04T00:01:41;13.30;91.70
52787;DHT22;38661;53.152;5.846;2022-10-04T00:06:57;13.30;91.30
52787;DHT22;38661;53.152;5.846;2022-10-04T00:09:35;13.30;91.40
52787;DHT22;38661;53.152;5.846;2022-10-04T00:12:13;13.30;91.20
52787;DHT22;38661;53.152;5.846;2022-10-04T00:14:42;13.30;91.70
52787;DHT22;38661;53.152;5.846;2022-10-04T00:17:13;13.30;91.60
52787;DHT22;38661;53.152;5.846;2022-10-04T00:19:50;13.30;92.00
52787;DHT22;38661;53.152;5.846;2022-10-04T00:22:21;13.20;91.90
52787;DHT22;38661;53.152;5.846;2022-10-04T00:27:38;13.30;91.60
52787;DHT22;38661;53.152;5.846;2022-10-04T00:34:58;13.20;91.50
52787;DHT22;38661;53.152;5.846;2022-10-04T00:37:26;13.20;91.60
52787;DHT22;38661;53.152;5.846;2022-10-04T00:40:02;13.20;91.90
52787;DHT22;38661;53.152;5.846;2022-10-04T00:42:33;13.20;91.70
52787;DHT22;38661;53.152;5.846;2022-10-04T00:50:37;13.10;91.60
52787;DHT22;38661;53.152;5.846;2022-10-04T00:53:13;13.20;91.30
52787;DHT22;38661;53.152;5.846;2022-10-04T00:55:50;13.20;91.30
52787;DHT22;38661;53.152;5.846;2022-10-04T00:58:27;13.10;91.30
52787;DHT22;38661;53.152;5.846;2022-10-04T01:00:54;13.10;91.30
52787;DHT22;38661;53.152;5.846;2022-10-04T01:03:28;13.10;91.30
52787;DHT22;38661;53.152;5.846;2022-10-04T01:05:58;13.10;91.40
52787;DHT22;38661;53.152;5.846;2022-10-04T01:08:32;13.10;91.20
52787;DHT22;38661;53.152;5.846;2022-10-04T01:13:39;13.10;91.30
52787;DHT22;38661;53.152;5.846;2022-10-04T01:16:38;13.00;91.50
52787;DHT22;38661;53.152;5.846;2022-10-04T01:24:44;13.10;91.30
52787;DHT22;38661;53.152;5.846;2022-10-04T01:29:54;13.00;91.40
52787;DHT22;38661;53.152;5.846;2022-10-04T01:32:20;13.00;91.50
52787;DHT22;38661;53.152;5.846;2022-10-04T01:34:47;13.00;91.50
52787;DHT22;38661;53.152;5.846;2022-10-04T01:37:13;12.90;91.70
52787;DHT22;38661;53.152;5.846;2022-10-04T01:39:39;12.80;91.70
52787;DHT22;38661;53.152;5.846;2022-10-04T01:47:05;12.70;91.60
52787;DHT22;38661;53.152;5.846;2022-10-04T01:49:35;12.70;91.60
52787;DHT22;38661;53.152;5.846;2022-10-04T01:52:38;12.60;91.90
52787;DHT22;38661;53.152;5.846;2022-10-04T01:55:18;12.50;92.10
52787;DHT22;38661;53.152;5.846;2022-10-04T01:57:51;12.50;91.90
52787;DHT22;38661;53.152;5.846;2022-10-04T02:00:20;12.50;91.80
52787;DHT22;38661;53.152;5.846;2022-10-04T02:03:13;12.50;91.70
52787;DHT22;38661;53.152;5.846;2022-10-04T02:06:01;12.50;91.60
52787;DHT22;38661;53.152;5.846;2022-10-04T02:08:31;12.40;91.50
52787;DHT22;38661;53.152;5.846;2022-10-04T02:11:00;12.40;91.50
52787;DHT22;38661;53.152;5.846;2022-10-04T02:13:31;12.40;91.50
52787;DHT22;38661;53.152;5.846;2022-10-04T02:15:58;12.30;91.40
52787;DHT22;38661;53.152;5.846;2022-10-04T02:18:25;12.30;91.40
52787;DHT22;38661;53.152;5.846;2022-10-04T02:20:52;12.30;91.40
52787;DHT22;38661;53.152;5.846;2022-10-04T02:23:20;12.20;91.30
52787;DHT22;38661;53.152;5.846;2022-10-04T02:25:47;12.20;91.70
52787;DHT22;38661;53.152;5.846;2022-10-04T02:28:14;12.10;91.80
52787;DHT22;38661;53.152;5.846;2022-10-04T02:30:44;12.10;91.90
52787;DHT22;38661;53.152;5.846;2022-10-04T02:33:32;12.00;91.80
52787;DHT22;38661;53.152;5.846;2022-10-04T02:35:58;12.00;91.90
52787;DHT22;38661;53.152;5.846;2022-10-04T02:38:28;12.00;92.10
52787;DHT22;38661;53.152;5.846;2022-10-04T02:43:36;11.90;92.30
52787;DHT22;38661;53.152;5.846;2022-10-04T02:48:58;11.90;91.80
52787;DHT22;38661;53.152;5.846;2022-10-04T02:51:32;11.80;91.80
52787;DHT22;38661;53.152;5.846;2022-10-04T02:56:49;11.80;91.90
52787;DHT22;38661;53.152;5.846;2022-10-04T02:59:20;11.70;91.80
52787;DHT22;38661;53.152;5.846;2022-10-04T03:01:53;11.70;91.70
52787;DHT22;38661;53.152;5.846;2022-10-04T03:04:26;11.60;91.70
52787;DHT22;38661;53.152;5.846;2022-10-04T03:06:54;11.60;91.60
52787;DHT22;38661;53.152;5.846;2022-10-04T03:09:21;11.50;91.50
52787;DHT22;38661;53.152;5.846;2022-10-04T03:11:49;11.50;91.60
52787;DHT22;38661;53.152;5.846;2022-10-04T03:14:19;11.50;91.60
52787;DHT22;38661;53.152;5.846;2022-10-04T03:16:47;11.50;91.60
52787;DHT22;38661;53.152;5.846;2022-10-04T03:19:16;11.50;91.60
52787;DHT22;38661;53.152;5.846;2022-10-04T03:21:45;11.40;91.80
52787;DHT22;38661;53.152;5.846;2022-10-04T03:24:20;11.40;91.90
52787;DHT22;38661;53.152;5.846;2022-10-04T03:26:55;11.40;91.70
52787;DHT22;38661;53.152;5.846;2022-10-04T03:29:24;11.40;91.70
52787;DHT22;38661;53.152;5.846;2022-10-04T03:31:53;11.40;91.70
52787;DHT22;38661;53.152;5.846;2022-10-04T03:34:45;11.30;91.70
52787;DHT22;38661;53.152;5.846;2022-10-04T03:37:15;11.30;91.90
52787;DHT22;38661;53.152;5.846;2022-10-04T03:39:43;11.30;92.00
52787;DHT22;38661;53.152;5.846;2022-10-04T03:42:39;11.30;92.10
52787;DHT22;38661;53.152;5.846;2022-10-04T03:45:14;11.30;92.00
52787;DHT22;38661;53.152;5.846;2022-10-04T03:47:47;11.20;91.90
52787;DHT22;38661;53.152;5.846;2022-10-04T03:50:22;11.30;92.00
52787;DHT22;38661;53.152;5.846;2022-10-04T03:52:59;11.20;92.40
52787;DHT22;38661;53.152;5.846;2022-10-04T03:55:43;11.20;92.40
52787;DHT22;38661;53.152;5.846;2022-10-04T03:58:16;11.20;92.70
52787;DHT22;38661;53.152;5.846;2022-10-04T04:01:31;11.20;92.70
52787;DHT22;38661;53.152;5.846;2022-10-04T04:03:40;11.20;92.40
52787;DHT22;38661;53.152;5.846;2022-10-04T04:06:14;11.20;92.20
52787;DHT22;38661;53.152;5.846;2022-10-04T04:08:42;11.20;92.50
52787;DHT22;38661;53.152;5.846;2022-10-04T04:11:22;11.10;92.40
52787;DHT22;38661;53.152;5.846;2022-10-04T04:14:24;11.20;92.40
52787;DHT22;38661;53.152;5.846;2022-10-04T04:16:55;11.10;92.80
52787;DHT22;38661;53.152;5.846;2022-10-04T04:19:41;11.10;92.90
52787;DHT22;38661;53.152;5.846;2022-10-04T04:22:13;11.00;92.80
52787;DHT22;38661;53.152;5.846;2022-10-04T04:24:40;11.00;92.60
52787;DHT22;38661;53.152;5.846;2022-10-04T04:27:08;11.00;92.50
52787;DHT22;38661;53.152;5.846;2022-10-04T04:29:51;11.00;92.70
52787;DHT22;38661;53.152;5.846;2022-10-04T04:32:30;11.00;92.60
52787;DHT22;38661;53.152;5.846;2022-10-04T04:34:59;11.00;92.70
52787;DHT22;38661;53.152;5.846;2022-10-04T04:37:32;10.90;92.70
52787;DHT22;38661;53.152;5.846;2022-10-04T04:40:15;11.00;92.50
52787;DHT22;38661;53.152;5.846;2022-10-04T04:42:43;10.90;92.50
52787;DHT22;38661;53.152;5.846;2022-10-04T04:47:53;10.90;92.70
52787;DHT22;38661;53.152;5.846;2022-10-04T04:53:19;10.80;92.80
52787;DHT22;38661;53.152;5.846;2022-10-04T04:55:57;10.80;92.90
52787;DHT22;38661;53.152;5.846;2022-10-04T04:58:29;10.80;92.70
52787;DHT22;38661;53.152;5.846;2022-10-04T05:01:04;10.90;92.70
52787;DHT22;38661;53.152;5.846;2022-10-04T05:03:30;10.80;92.80
52787;DHT22;38661;53.152;5.846;2022-10-04T05:05:59;10.80;92.90
52787;DHT22;38661;53.152;5.846;2022-10-04T05:08:31;10.80;92.80
52787;DHT22;38661;53.152;5.846;2022-10-04T05:11:01;10.80;92.70
52787;DHT22;38661;53.152;5.846;2022-10-04T05:16:41;10.80;93.10
52787;DHT22;38661;53.152;5.846;2022-10-04T05:19:30;10.70;93.80
52787;DHT22;38661;53.152;5.846;2022-10-04T05:22:05;10.70;93.50
52787;DHT22;38661;53.152;5.846;2022-10-04T05:24:41;10.70;93.20
52787;DHT22;38661;53.152;5.846;2022-10-04T05:30:02;10.70;93.40
52787;DHT22;38661;53.152;5.846;2022-10-04T05:34:55;10.70;93.30
52787;DHT22;38661;53.152;5.846;2022-10-04T05:37:22;10.70;93.40
52787;DHT22;38661;53.152;5.846;2022-10-04T05:40:15;10.70;93.50
52787;DHT22;38661;53.152;5.846;2022-10-04T05:42:48;10.70;93.50
52787;DHT22;38661;53.152;5.846;2022-10-04T05:45:30;10.70;93.40
52787;DHT22;38661;53.152;5.846;2022-10-04T05:47:57;10.70;93.20
52787;DHT22;38661;53.152;5.846;2022-10-04T05:50:39;10.70;93.60
52787;DHT22;38661;53.152;5.846;2022-10-04T06:01:35;10.70;93.20
52787;DHT22;38661;53.152;5.846;2022-10-04T06:04:24;10.70;93.60
52787;DHT22;38661;53.152;5.846;2022-10-04T06:09:47;10.60;93.30
52787;DHT22;38661;53.152;5.846;2022-10-04T06:12:43;10.60;93.40
52787;DHT22;38661;53.152;5.846;2022-10-04T06:23:15;10.50;93.90
52787;DHT22;38661;53.152;5.846;2022-10-04T06:26:26;10.60;94.00
52787;DHT22;38661;53.152;5.846;2022-10-04T06:28:51;10.60;93.70
52787;DHT22;38661;53.152;5.846;2022-10-04T06:45:53;10.60;93.70
52787;DHT22;38661;53.152;5.846;2022-10-04T06:54:17;10.70;93.50
52787;DHT22;38661;53.152;5.846;2022-10-04T06:57:16;10.80;93.90
52787;DHT22;38661;53.152;5.846;2022-10-04T07:02:29;10.90;93.80
52787;DHT22;38661;53.152;5.846;2022-10-04T07:05:28;11.00;94.10
52787;DHT22;38661;53.152;5.846;2022-10-04T07:08:17;11.10;93.80
52787;DHT22;38661;53.152;5.846;2022-10-04T07:11:11;11.10;93.80
52787;DHT22;38661;53.152;5.846;2022-10-04T07:14:04;11.20;93.90
52787;DHT22;38661;53.152;5.846;2022-10-04T07:29:54;11.50;93.80
52787;DHT22;38661;53.152;5.846;2022-10-04T07:32:24;11.50;93.80
52787;DHT22;38661;53.152;5.846;2022-10-04T07:37:25;11.50;93.60
52787;DHT22;38661;53.152;5.846;2022-10-04T07:40:07;11.60;93.30
52787;DHT22;38661;53.152;5.846;2022-10-04T07:45:22;11.60;93.20
52787;DHT22;38661;53.152;5.846;2022-10-04T07:47:50;11.60;93.10
52787;DHT22;38661;53.152;5.846;2022-10-04T07:50:27;11.60;93.10
52787;DHT22;38661;53.152;5.846;2022-10-04T07:53:07;11.70;93.20
52787;DHT22;38661;53.152;5.846;2022-10-04T07:59:03;11.80;93.10
52787;DHT22;38661;53.152;5.846;2022-10-04T08:01:24;12.00;93.10
52787;DHT22;38661;53.152;5.846;2022-10-04T08:04:04;12.00;93.00
52787;DHT22;38661;53.152;5.846;2022-10-04T08:12:02;12.50;92.50
52787;DHT22;38661;53.152;5.846;2022-10-04T08:15:32;12.60;92.30
52787;DHT22;38661;53.152;5.846;2022-10-04T08:31:51;13.30;90.30
52787;DHT22;38661;53.152;5.846;2022-10-04T08:43:39;13.70;89.10
52787;DHT22;38661;53.152;5.846;2022-10-04T08:59:53;14.20;88.00
52787;DHT22;38661;53.152;5.846;2022-10-04T09:08:53;14.30;86.70
52787;DHT22;38661;53.152;5.846;2022-10-04T09:11:26;14.50;87.20
52787;DHT22;38661;53.152;5.846;2022-10-04T09:16:46;14.50;85.40
52787;DHT22;38661;53.152;5.846;2022-10-04T09:30:31;14.60;85.20
52787;DHT22;38661;53.152;5.846;2022-10-04T09:47:28;15.00;84.50
52787;DHT22;38661;53.152;5.846;2022-10-04T10:01:34;15.00;84.20
52787;DHT22;38661;53.152;5.846;2022-10-04T10:07:12;15.00;84.30
52787;DHT22;38661;53.152;5.846;2022-10-04T10:09:57;15.00;84.70
52787;DHT22;38661;53.152;5.846;2022-10-04T10:13:17;14.80;84.60
52787;DHT22;38661;53.152;5.846;2022-10-04T10:27:18;15.40;83.60
52787;DHT22;38661;53.152;5.846;2022-10-04T11:00:19;16.60;78.20
52787;DHT22;38661;53.152;5.846;2022-10-04T11:25:56;16.80;77.90
52787;DHT22;38661;53.152;5.846;2022-10-04T11:46:00;16.60;78.40
52787;DHT22;38661;53.152;5.846;2022-10-04T12:09:04;17.70;75.80
52787;DHT22;38661;53.152;5.846;2022-10-04T12:11:33;17.80;74.30
52787;DHT22;38661;53.152;5.846;2022-10-04T12:17:48;18.00;73.50
52787;DHT22;38661;53.152;5.846;2022-10-04T12:20:49;17.90;74.20
52787;DHT22;38661;53.152;5.846;2022-10-04T12:40:54;18.10;73.30
52787;DHT22;38661;53.152;5.846;2022-10-04T12:43:34;18.10;73.00
52787;DHT22;38661;53.152;5.846;2022-10-04T12:46:36;18.20;70.90
52787;DHT22;38661;53.152;5.846;2022-10-04T12:55:01;18.60;70.10
52787;DHT22;38661;53.152;5.846;2022-10-04T13:00:25;18.70;69.10
52787;DHT22;38661;53.152;5.846;2022-10-04T13:11:18;18.80;67.70
52787;DHT22;38661;53.152;5.846;2022-10-04T13:22:29;18.90;67.50
52787;DHT22;38661;53.152;5.846;2022-10-04T13:30:54;18.80;66.90
52787;DHT22;38661;53.152;5.846;2022-10-04T13:41:32;18.80;67.40
52787;DHT22;38661;53.152;5.846;2022-10-04T14:15:56;18.90;64.10
52787;DHT22;38661;53.152;5.846;2022-10-04T14:18:58;18.90;64.30
52787;DHT22;38661;53.152;5.846;2022-10-04T14:27:19;18.40;65.50
52787;DHT22;38661;53.152;5.846;2022-10-04T14:33:10;18.30;67.70
52787;DHT22;38661;53.152;5.846;2022-10-04T14:38:59;18.10;69.40
52787;DHT22;38661;53.152;5.846;2022-10-04T14:44:47;17.90;68.10
52787;DHT22;38661;53.152;5.846;2022-10-04T14:52:47;17.70;69.10
52787;DHT22;38661;53.152;5.846;2022-10-04T15:06:21;17.40;70.30
52787;DHT22;38661;53.152;5.846;2022-10-04T15:11:39;17.30;70.60
52787;DHT22;38661;53.152;5.846;2022-10-04T15:14:24;17.30;71.00
52787;DHT22;38661;53.152;5.846;2022-10-04T15:16:55;17.30;71.10
52787;DHT22;38661;53.152;5.846;2022-10-04T15:19:47;17.30;71.20
52787;DHT22;38661;53.152;5.846;2022-10-04T15:22:27;17.50;71.20
52787;DHT22;38661;53.152;5.846;2022-10-04T15:24:55;17.50;71.30
52787;DHT22;38661;53.152;5.846;2022-10-04T15:30:19;17.40;70.90
52787;DHT22;38661;53.152;5.846;2022-10-04T15:33:12;17.30;71.50
52787;DHT22;38661;53.152;5.846;2022-10-04T15:38:47;17.10;71.60
52787;DHT22;38661;53.152;5.846;2022-10-04T15:41:44;17.20;71.90
52787;DHT22;38661;53.152;5.846;2022-10-04T15:47:30;17.00;72.80
52787;DHT22;38661;53.152;5.846;2022-10-04T15:50:30;16.90;73.20
52787;DHT22;38661;53.152;5.846;2022-10-04T15:58:43;16.80;73.70
52787;DHT22;38661;53.152;5.846;2022-10-04T16:13:00;16.60;74.60
52787;DHT22;38661;53.152;5.846;2022-10-04T16:15:34;16.60;74.70
52787;DHT22;38661;53.152;5.846;2022-10-04T16:18:34;16.50;74.80
52787;DHT22;38661;53.152;5.846;2022-10-04T16:21:09;16.50;74.70
52787;DHT22;38661;53.152;5.846;2022-10-04T16:23:41;16.50;75.00
52787;DHT22;38661;53.152;5.846;2022-10-04T16:32:27;16.40;76.50
52787;DHT22;38661;53.152;5.846;2022-10-04T16:35:23;16.30;77.10
52787;DHT22;38661;53.152;5.846;2022-10-04T16:40:34;16.20;77.80
52787;DHT22;38661;53.152;5.846;2022-10-04T16:43:24;16.10;78.00
52787;DHT22;38661;53.152;5.846;2022-10-04T16:48:58;16.10;77.70
52787;DHT22;38661;53.152;5.846;2022-10-04T16:51:56;16.10;78.30
52787;DHT22;38661;53.152;5.846;2022-10-04T16:57:17;16.00;78.40
52787;DHT22;38661;53.152;5.846;2022-10-04T16:59:50;16.00;78.20
52787;DHT22;38661;53.152;5.846;2022-10-04T17:02:41;16.00;78.70
52787;DHT22;38661;53.152;5.846;2022-10-04T17:05:48;16.00;79.20
52787;DHT22;38661;53.152;5.846;2022-10-04T17:08:23;16.00;79.30
52787;DHT22;38661;53.152;5.846;2022-10-04T17:16:37;15.80;80.70
52787;DHT22;38661;53.152;5.846;2022-10-04T17:19:36;15.80;80.60
52787;DHT22;38661;53.152;5.846;2022-10-04T17:22:30;15.80;80.40
52787;DHT22;38661;53.152;5.846;2022-10-04T17:25:58;15.70;80.80
52787;DHT22;38661;53.152;5.846;2022-10-04T17:27:57;15.70;81.30
52787;DHT22;38661;53.152;5.846;2022-10-04T17:30:29;15.70;81.20
52787;DHT22;38661;53.152;5.846;2022-10-04T17:33:31;15.60;82.00
52787;DHT22;38661;53.152;5.846;2022-10-04T17:47:37;15.50;82.20
52787;DHT22;38661;53.152;5.846;2022-10-04T17:50:36;15.50;83.10
52787;DHT22;38661;53.152;5.846;2022-10-04T17:53:27;15.40;83.00
52787;DHT22;38661;53.152;5.846;2022-10-04T17:56:26;15.40;83.00
52787;DHT22;38661;53.152;5.846;2022-10-04T17:58:55;15.50;82.50
52787;DHT22;38661;53.152;5.846;2022-10-04T18:01:30;15.50;83.70
52787;DHT22;38661;53.152;5.846;2022-10-04T18:04:07;15.50;83.40
52787;DHT22;38661;53.152;5.846;2022-10-04T18:06:54;15.50;83.40
52787;DHT22;38661;53.152;5.846;2022-10-04T18:11:55;15.60;83.70
52787;DHT22;38661;53.152;5.846;2022-10-04T18:17:04;15.60;83.80
52787;DHT22;38661;53.152;5.846;2022-10-04T18:22:16;15.70;84.10
52787;DHT22;38661;53.152;5.846;2022-10-04T18:24:44;15.70;84.00
52787;DHT22;38661;53.152;5.846;2022-10-04T18:27:21;15.80;83.90
52787;DHT22;38661;53.152;5.846;2022-10-04T18:30:13;15.80;83.50
52787;DHT22;38661;53.152;5.846;2022-10-04T18:32:54;15.90;83.90
52787;DHT22;38661;53.152;5.846;2022-10-04T18:35:31;15.90;84.00
52787;DHT22;38661;53.152;5.846;2022-10-04T18:40:39;15.90;83.90
52787;DHT22;38661;53.152;5.846;2022-10-04T18:43:39;15.90;84.30
52787;DHT22;38661;53.152;5.846;2022-10-04T18:46:19;15.90;84.20
52787;DHT22;38661;53.152;5.846;2022-10-04T18:49:13;15.90;84.60
52787;DHT22;38661;53.152;5.846;2022-10-04T18:54:59;15.90;84.00
52787;DHT22;38661;53.152;5.846;2022-10-04T18:57:39;16.00;83.90
52787;DHT22;38661;53.152;5.846;2022-10-04T19:00:40;15.90;84.60
52787;DHT22;38661;53.152;5.846;2022-10-04T19:08:48;15.90;84.50
52787;DHT22;38661;53.152;5.846;2022-10-04T19:11:18;15.90;85.00
52787;DHT22;38661;53.152;5.846;2022-10-04T19:16:23;15.90;85.30
52787;DHT22;38661;53.152;5.846;2022-10-04T19:19:59;15.90;85.40
52787;DHT22;38661;53.152;5.846;2022-10-04T19:24:54;15.90;85.50
52787;DHT22;38661;53.152;5.846;2022-10-04T19:27:33;15.80;85.90
52787;DHT22;38661;53.152;5.846;2022-10-04T19:30:20;15.90;85.80
52787;DHT22;38661;53.152;5.846;2022-10-04T19:38:24;15.80;86.10
52787;DHT22;38661;53.152;5.846;2022-10-04T19:41:06;15.90;85.70
52787;DHT22;38661;53.152;5.846;2022-10-04T19:49:52;15.80;86.70
52787;DHT22;38661;53.152;5.846;2022-10-04T19:58:02;15.70;87.40
52787;DHT22;38661;53.152;5.846;2022-10-04T20:00:31;15.70;87.20
52787;DHT22;38661;53.152;5.846;2022-10-04T20:02:57;15.70;87.00
52787;DHT22;38661;53.152;5.846;2022-10-04T20:05:23;15.70;87.20
52787;DHT22;38661;53.152;5.846;2022-10-04T20:07:56;15.70;87.40
52787;DHT22;38661;53.152;5.846;2022-10-04T20:10:33;15.70;87.30
52787;DHT22;38661;53.152;5.846;2022-10-04T20:13:28;15.70;87.50
52787;DHT22;38661;53.152;5.846;2022-10-04T20:15:55;15.70;87.40
52787;DHT22;38661;53.152;5.846;2022-10-04T20:26:33;15.70;87.20
52787;DHT22;38661;53.152;5.846;2022-10-04T20:32:07;15.80;87.00
52787;DHT22;38661;53.152;5.846;2022-10-04T20:34:47;15.80;87.00
52787;DHT22;38661;53.152;5.846;2022-10-04T20:37:14;15.70;87.70
52787;DHT22;38661;53.152;5.846;2022-10-04T20:47:34;15.70;87.60
52787;DHT22;38661;53.152;5.846;2022-10-04T20:50:02;15.70;87.30
52787;DHT22;38661;53.152;5.846;2022-10-04T20:52:31;15.70;87.90
52787;DHT22;38661;53.152;5.846;2022-10-04T20:54:59;15.70;88.00
52787;DHT22;38661;53.152;5.846;2022-10-04T20:57:29;15.70;88.00
52787;DHT22;38661;53.152;5.846;2022-10-04T20:59:56;15.70;87.80
52787;DHT22;38661;53.152;5.846;2022-10-04T21:02:24;15.60;88.30
52787;DHT22;38661;53.152;5.846;2022-10-04T21:04:52;15.60;88.30
52787;DHT22;38661;53.152;5.846;2022-10-04T21:07:23;15.60;88.00
52787;DHT22;38661;53.152;5.846;2022-10-04T21:09:50;15.60;88.10
52787;DHT22;38661;53.152;5.846;2022-10-04T21:12:37;15.60;88.30
52787;DHT22;38661;53.152;5.846;2022-10-04T21:17:42;15.60;88.50
52787;DHT22;38661;53.152;5.846;2022-10-04T21:20:13;15.60;88.10
52787;DHT22;38661;53.152;5.846;2022-10-04T21:22:40;15.60;88.40
52787;DHT22;38661;53.152;5.846;2022-10-04T21:25:26;15.60;88.50
52787;DHT22;38661;53.152;5.846;2022-10-04T21:27:52;15.60;88.70
52787;DHT22;38661;53.152;5.846;2022-10-04T21:30:18;15.60;88.40
52787;DHT22;38661;53.152;5.846;2022-10-04T21:32:44;15.60;88.90
52787;DHT22;38661;53.152;5.846;2022-10-04T21:35:11;15.60;88.60
52787;DHT22;38661;53.152;5.846;2022-10-04T21:37:37;15.60;88.60
52787;DHT22;38661;53.152;5.846;2022-10-04T21:40:04;15.60;89.00
52787;DHT22;38661;53.152;5.846;2022-10-04T21:42:30;15.60;89.00
52787;DHT22;38661;53.152;5.846;2022-10-04T21:44:56;15.60;88.70
52787;DHT22;38661;53.152;5.846;2022-10-04T21:47:21;15.60;88.70
52787;DHT22;38661;53.152;5.846;2022-10-04T21:49:48;15.60;88.40
52787;DHT22;38661;53.152;5.846;2022-10-04T21:52:15;15.70;88.10
52787;DHT22;38661;53.152;5.846;2022-10-04T21:54:43;15.60;88.40
52787;DHT22;38661;53.152;5.846;2022-10-04T21:57:09;15.60;88.60
52787;DHT22;38661;53.152;5.846;2022-10-04T21:59:34;15.60;88.60
52787;DHT22;38661;53.152;5.846;2022-10-04T22:02:00;15.60;88.80
52787;DHT22;38661;53.152;5.846;2022-10-04T22:04:26;15.60;88.50
52787;DHT22;38661;53.152;5.846;2022-10-04T22:06:51;15.60;88.80
52787;DHT22;38661;53.152;5.846;2022-10-04T22:09:17;15.60;89.10
52787;DHT22;38661;53.152;5.846;2022-10-04T22:11:43;15.50;89.00
52787;DHT22;38661;53.152;5.846;2022-10-04T22:14:08;15.50;88.80
52787;DHT22;38661;53.152;5.846;2022-10-04T22:16:34;15.50;89.20
52787;DHT22;38661;53.152;5.846;2022-10-04T22:19:00;15.50;89.20
52787;DHT22;38661;53.152;5.846;2022-10-04T22:21:25;15.50;89.00
52787;DHT22;38661;53.152;5.846;2022-10-04T22:23:51;15.50;89.00
52787;DHT22;38661;53.152;5.846;2022-10-04T22:26:19;15.50;89.00
52787;DHT22;38661;53.152;5.846;2022-10-04T22:28:51;15.50;89.20
52787;DHT22;38661;53.152;5.846;2022-10-04T22:31:27;15.50;89.00
52787;DHT22;38661;53.152;5.846;2022-10-04T22:33:54;15.50;89.30
52787;DHT22;38661;53.152;5.846;2022-10-04T22:36:26;15.50;89.00
52787;DHT22;38661;53.152;5.846;2022-10-04T22:41:47;15.40;88.90
52787;DHT22;38661;53.152;5.846;2022-10-04T22:44:22;15.50;88.90
52787;DHT22;38661;53.152;5.846;2022-10-04T22:46:54;15.40;89.20
52787;DHT22;38661;53.152;5.846;2022-10-04T22:49:23;15.40;89.60
52787;DHT22;38661;53.152;5.846;2022-10-04T22:51:51;15.40;89.30
52787;DHT22;38661;53.152;5.846;2022-10-04T22:54:25;15.40;89.60
52787;DHT22;38661;53.152;5.846;2022-10-04T22:56:51;15.40;89.10
52787;DHT22;38661;53.152;5.846;2022-10-04T22:59:20;15.50;89.20
52787;DHT22;38661;53.152;5.846;2022-10-04T23:01:47;15.40;89.00
52787;DHT22;38661;53.152;5.846;2022-10-04T23:04:20;15.40;89.20
52787;DHT22;38661;53.152;5.846;2022-10-04T23:06:46;15.40;89.00
52787;DHT22;38661;53.152;5.846;2022-10-04T23:09:12;15.40;89.20
52787;DHT22;38661;53.152;5.846;2022-10-04T23:11:38;15.40;89.30
52787;DHT22;38661;53.152;5.846;2022-10-04T23:14:03;15.40;89.30
52787;DHT22;38661;53.152;5.846;2022-10-04T23:16:29;15.40;89.50
52787;DHT22;38661;53.152;5.846;2022-10-04T23:19:22;15.40;89.20
52787;DHT22;38661;53.152;5.846;2022-10-04T23:21:48;15.40;89.60
52787;DHT22;38661;53.152;5.846;2022-10-04T23:24:17;15.40;89.50
52787;DHT22;38661;53.152;5.846;2022-10-04T23:26:45;15.40;89.00
52787;DHT22;38661;53.152;5.846;2022-10-04T23:29:23;15.40;89.60
52787;DHT22;38661;53.152;5.846;2022-10-04T23:31:50;15.40;89.30
52787;DHT22;38661;53.152;5.846;2022-10-04T23:34:36;15.30;89.60
52787;DHT22;38661;53.152;5.846;2022-10-04T23:37:09;15.40;89.30
52787;DHT22;38661;53.152;5.846;2022-10-04T23:39:37;15.40;89.50
52787;DHT22;38661;53.152;5.846;2022-10-04T23:42:20;15.30;89.60
52787;DHT22;38661;53.152;5.846;2022-10-04T23:44:50;15.40;89.30
52787;DHT22;38661;53.152;5.846;2022-10-04T23:47:20;15.30;89.40
52787;DHT22;38661;53.152;5.846;2022-10-04T23:49:49;15.30;89.30
52787;DHT22;38661;53.152;5.846;2022-10-04T23:52:21;15.30;89.20
52787;DHT22;38661;53.152;5.846;2022-10-04T23:54:50;15.30;89.10
52787;DHT22;38661;53.152;5.846;2022-10-04T23:57:25;15.30;89.10
52787;DHT22;38661;53.152;5.846;2022-10-04T23:59:51;15.30;89.00
